Accueil
METAR-TAF:

METAR-TAF

Aéroports :

Aéroport international de Curaçao

Curaçao, Antilles néerlandaises

latitude: 12-12N, longitude: 068-58W, altitude: 9 m

Observation

Le bulletin a été fait il y a 43 minutes, à 14:00 UTC
Vent 9 kt de est, variant entre est/nord-est et est/sud-est
Température 30°C
Humidité 75%
Pression 1011 hPa
Visibilité 10 km ou plus
Quelques nuages à une hauteur de 2300 ft

METAR: TNCC 211400Z 09009KT 060V120 9999 FEW023 30/25 Q1011 NOSIG

Heure: 10:43 (14:43 UTC)

Prévision

Le bulletin a été fait il y a 4 heures et 43 minutes, à 10:00 UTC
Prévision valable du 21 à 12 UTC au 22 à 12 UTC
Vent 12 kt de est
Visibilité 10 km ou plus
Nuages épars à une hauteur de 1800 ft
Temporairement
du 21 à 12 UTC au 21 à 18 UTC
Visibilité: 6000 m
Nuages fragmentés à une hauteur de 1500 ft
averses de pluie

TAF: TNCC 211000Z 2112/2212 08012KT 9999 SCT018 TEMPO 2112/2118 6000 SHRA BKN015

Observations et prévisions météorologiques de plus de 4000 aéroports (messages METAR et TAF).

Les stations disponibles sont représentées par des disques jaunes et rouges sur la carte.

Passer la souris dessus pour voir le nom de la station.

Cliquer dessus pour voir les observations et prévisions météorologiques.

Pour changer de carte: cliquez sur les boutons verts avec une croix noire pour zoomer, sur le bouton vert avec un tiret pour effectuer un zoom arrière, ou sur les flèches vertes pour les cartes adjacentes.


METAR-TAF: